Time;durP1;ratioP1;P1;durP2;ratioP2;P2;SDS_P1;SDS_P2;PMS_P1;PMS_P2;Temp;Humidity;BMP_temperature;BMP_pressure;BME280_temperature;BME280_humidity;BME280_pressure;Samples;Min_cycle;Max_cycle;Signal;HPM_P1;HPM_P2
2024/03/18 00:00:17;;;;;;;8.20;3.30;;;;;;;0.18;100.00;101671.28;5069982;28;20285;-71
2024/03/18 00:02:44;;;;;;;7.77;3.30;;;;;;;0.19;100.00;101666.84;5070781;28;20199;-71
2024/03/18 00:05:11;;;;;;;7.13;3.30;;;;;;;0.18;100.00;101666.06;5064244;28;20222;-71
2024/03/18 00:07:40;;;;;;;5.43;3.20;;;;;;;0.17;100.00;101661.88;5064382;28;20202;-71
2024/03/18 00:10:11;;;;;;;5.47;3.57;;;;;;;0.15;100.00;101665.72;5070725;28;20549;-71
2024/03/18 00:12:37;;;;;;;7.17;3.83;;;;;;;0.12;100.00;101663.59;5049045;28;20650;-71
2024/03/18 00:15:07;;;;;;;7.07;3.17;;;;;;;0.10;100.00;101663.03;5069966;28;20223;-71
2024/03/18 00:17:34;;;;;;;9.17;3.90;;;;;;;0.05;100.00;101663.72;5061188;28;20198;-71
2024/03/18 00:20:01;;;;;;;7.20;3.33;;;;;;;0.05;100.00;101663.72;5064601;28;20267;-71
2024/03/18 00:22:27;;;;;;;7.77;3.17;;;;;;;0.01;100.00;101670.38;5062113;28;20646;-72
2024/03/18 00:24:55;;;;;;;7.57;3.83;;;;;;;-0.01;100.00;101664.66;5062944;28;20791;-71
2024/03/18 00:27:21;;;;;;;8.17;3.90;;;;;;;-0.08;100.00;101658.00;5070467;28;20198;-71
2024/03/18 00:29:47;;;;;;;6.80;3.40;;;;;;;-0.10;100.00;101662.66;5060295;28;20204;-71
2024/03/18 00:32:15;;;;;;;9.47;3.67;;;;;;;-0.15;100.00;101663.31;5062637;28;20282;-71
2024/03/18 00:34:41;;;;;;;6.63;3.43;;;;;;;-0.17;100.00;101656.00;5065108;28;20227;-71
2024/03/18 00:37:07;;;;;;;8.07;3.10;;;;;;;-0.21;100.00;101661.63;5059421;28;20198;-71
2024/03/18 00:39:34;;;;;;;6.17;3.70;;;;;;;-0.28;100.00;101655.78;5065433;28;20209;-71
2024/03/18 00:42:05;;;;;;;6.13;3.33;;;;;;;-0.36;100.00;101657.94;5058634;28;20198;-71
2024/03/18 00:44:30;;;;;;;7.10;3.40;;;;;;;-0.37;100.00;101658.94;5064206;28;20211;-71
2024/03/18 00:46:57;;;;;;;7.03;3.30;;;;;;;-0.37;100.00;101662.34;5071112;28;20579;-71
2024/03/18 00:49:23;;;;;;;5.53;3.33;;;;;;;-0.37;100.00;101658.94;5060768;28;20215;-71
2024/03/18 00:51:50;;;;;;;5.67;3.30;;;;;;;-0.36;100.00;101655.34;5065674;28;20194;-71
2024/03/18 00:54:18;;;;;;;7.57;3.10;;;;;;;-0.43;100.00;101648.69;5063746;28;20202;-71
2024/03/18 00:56:44;;;;;;;5.30;3.17;;;;;;;-0.44;100.00;101650.50;5064492;28;20292;-71
2024/03/18 00:59:16;;;;;;;7.30;3.40;;;;;;;-0.52;100.00;101650.06;5064042;28;20628;-71
2024/03/18 01:01:43;;;;;;;5.30;3.07;;;;;;;-0.60;100.00;101646.00;5066885;28;20538;-71
2024/03/18 01:04:09;;;;;;;6.07;3.10;;;;;;;-0.63;100.00;101638.66;5072668;28;20588;-71
2024/03/18 01:06:35;;;;;;;7.03;3.83;;;;;;;-0.72;100.00;101640.78;5067115;28;20222;-71
2024/03/18 01:09:02;;;;;;;5.53;3.30;;;;;;;-0.77;100.00;101639.91;5048522;28;20206;-72
2024/03/18 01:11:30;;;;;;;9.07;3.60;;;;;;;-0.83;100.00;101633.00;5055606;28;20210;-72
2024/03/18 01:13:56;;;;;;;5.93;2.97;;;;;;;-0.87;100.00;101631.91;5063749;28;20760;-72
2024/03/18 01:16:24;;;;;;;6.17;3.23;;;;;;;-0.83;100.00;101627.03;5067519;28;20300;-72
2024/03/18 01:18:51;;;;;;;5.30;3.13;;;;;;;-0.82;100.00;101632.78;5063479;28;20527;-71
2024/03/18 01:21:18;;;;;;;6.40;3.77;;;;;;;-0.87;100.00;101630.06;5069375;28;20199;-71
2024/03/18 01:23:46;;;;;;;7.93;3.50;;;;;;;-0.87;100.00;101632.66;5073108;28;20728;-71
2024/03/18 01:26:15;;;;;;;5.37;3.10;;;;;;;-0.84;100.00;101628.06;5069755;28;20218;-71
2024/03/18 01:28:41;;;;;;;7.37;3.20;;;;;;;-0.84;100.00;101634.03;5072828;28;20190;-71
2024/03/18 01:31:08;;;;;;;6.90;3.40;;;;;;;-0.90;100.00;101619.38;5062730;28;20214;-71
2024/03/18 01:33:35;;;;;;;6.33;3.27;;;;;;;-0.91;100.00;101628.16;5068466;28;20226;-72
2024/03/18 01:36:04;;;;;;;7.17;3.87;;;;;;;-0.97;100.00;101624.66;5067708;28;20211;-71
2024/03/18 01:38:31;;;;;;;7.00;3.37;;;;;;;-0.98;100.00;101621.50;5071931;28;20250;-72
2024/03/18 01:40:57;;;;;;;8.77;3.83;;;;;;;-1.01;100.00;101625.34;5065267;28;20205;-71
2024/03/18 01:43:24;;;;;;;6.17;3.17;;;;;;;-0.97;100.00;101622.06;5070621;28;20210;-71
2024/03/18 01:45:50;;;;;;;7.33;3.63;;;;;;;-0.98;100.00;101618.91;5073029;28;20226;-71
2024/03/18 01:48:17;;;;;;;5.57;3.30;;;;;;;-1.04;100.00;101619.81;5064052;28;20198;-72
2024/03/18 01:50:46;;;;;;;8.53;3.40;;;;;;;-1.00;100.00;101616.53;5054761;28;20681;-71
2024/03/18 01:53:14;;;;;;;8.77;4.23;;;;;;;-1.02;100.00;101620.38;5062417;28;20569;-71
2024/03/18 01:55:41;;;;;;;6.77;3.30;;;;;;;-1.04;100.00;101615.41;5073492;28;20225;-71
2024/03/18 01:58:08;;;;;;;6.77;3.50;;;;;;;-1.02;100.00;101612.59;5072900;28;20206;-72
2024/03/18 02:00:36;;;;;;;5.77;3.47;;;;;;;-1.03;100.00;101617.00;5065052;28;20202;-72
2024/03/18 02:03:05;;;;;;;7.40;3.47;;;;;;;-1.19;100.00;101620.22;5068048;28;20534;-72
2024/03/18 02:05:32;;;;;;;8.07;3.63;;;;;;;-1.30;100.00;101612.44;5062613;28;20223;-71
2024/03/18 02:08:03;;;;;;;6.83;3.40;;;;;;;-1.35;100.00;101613.09;5056788;28;20543;-71
2024/03/18 02:10:30;;;;;;;9.17;3.80;;;;;;;-1.44;100.00;101609.25;5064718;28;20202;-71
2024/03/18 02:12:58;;;;;;;6.67;3.60;;;;;;;-1.48;100.00;101604.72;5065206;28;20200;-72
2024/03/18 02:15:25;;;;;;;8.90;3.73;;;;;;;-1.49;100.00;101605.75;5059706;28;20474;-71
2024/03/18 02:17:53;;;;;;;7.13;3.97;;;;;;;-1.56;100.00;101600.66;5056342;28;21008;-72
2024/03/18 02:20:20;;;;;;;5.87;3.73;;;;;;;-1.54;100.00;101605.63;5069527;28;20198;-72
2024/03/18 02:22:48;;;;;;;7.83;4.03;;;;;;;-1.61;100.00;101597.94;5072740;28;20195;-72
2024/03/18 02:25:14;;;;;;;7.33;3.77;;;;;;;-1.64;100.00;101606.16;5068636;28;20485;-72
2024/03/18 02:27:41;;;;;;;8.50;3.70;;;;;;;-1.70;100.00;101606.25;5072996;28;20557;-71
2024/03/18 02:30:09;;;;;;;7.93;3.87;;;;;;;-1.70;100.00;101599.28;5063736;28;20453;-72
2024/03/18 02:32:36;;;;;;;11.27;3.70;;;;;;;-1.75;100.00;101595.75;5072351;28;20734;-72
2024/03/18 02:35:05;;;;;;;10.97;3.83;;;;;;;-1.82;100.00;101590.66;5068234;28;20468;-72
2024/03/18 02:37:31;;;;;;;7.27;3.43;;;;;;;-1.85;100.00;101592.91;5065011;28;20557;-72
2024/03/18 02:39:59;;;;;;;6.77;3.63;;;;;;;-1.90;100.00;101596.16;5068876;28;20221;-72
2024/03/18 02:42:26;;;;;;;6.67;3.37;;;;;;;-1.89;100.00;101591.75;5039709;28;20199;-72
2024/03/18 02:44:52;;;;;;;8.40;3.90;;;;;;;-1.85;100.00;101592.91;5057584;28;20222;-72
2024/03/18 02:47:18;;;;;;;8.93;3.70;;;;;;;-1.81;100.00;101589.69;5064633;28;20196;-72
2024/03/18 02:49:45;;;;;;;6.23;3.33;;;;;;;-1.77;100.00;101588.19;5068436;28;20445;-72
2024/03/18 02:52:11;;;;;;;8.37;3.97;;;;;;;-1.78;100.00;101576.28;5054642;28;20464;-72
2024/03/18 02:54:38;;;;;;;5.07;3.20;;;;;;;-1.85;100.00;101579.97;5063713;28;20445;-72
2024/03/18 02:57:05;;;;;;;5.90;3.80;;;;;;;-1.94;100.00;101581.25;5055855;28;20449;-72
2024/03/18 02:59:32;;;;;;;9.33;3.80;;;;;;;-1.92;100.00;101577.44;5069902;28;20452;-72
2024/03/18 03:01:58;;;;;;;5.90;3.90;;;;;;;-2.01;100.00;101565.03;5069425;28;20451;-72
2024/03/18 03:04:24;;;;;;;7.87;4.63;;;;;;;-2.01;100.00;101563.25;5070600;28;20451;-72
2024/03/18 03:06:51;;;;;;;9.80;5.47;;;;;;;-2.05;100.00;101571.66;5066499;28;20202;-72
2024/03/18 03:09:18;;;;;;;11.23;4.80;;;;;;;-2.05;100.00;101556.94;5071059;28;20448;-72
2024/03/18 03:11:44;;;;;;;7.90;4.83;;;;;;;-2.11;100.00;101557.00;5063700;28;20527;-72
2024/03/18 03:14:12;;;;;;;7.73;4.80;;;;;;;-2.13;100.00;101549.47;5052056;28;20495;-72
2024/03/18 03:16:40;;;;;;;8.33;4.97;;;;;;;-2.14;100.00;101547.13;5059646;28;20556;-72
2024/03/18 03:19:08;;;;;;;9.53;4.93;;;;;;;-2.15;100.00;101538.56;5060913;28;20451;-72
2024/03/18 03:21:34;;;;;;;9.90;5.50;;;;;;;-2.14;100.00;101539.34;5066944;28;20571;-72
2024/03/18 03:24:01;;;;;;;10.70;5.03;;;;;;;-2.13;100.00;101536.53;5057634;28;20446;-72
2024/03/18 03:26:29;;;;;;;10.20;5.23;;;;;;;-2.12;100.00;101538.13;5061980;28;21019;-72
2024/03/18 03:28:56;;;;;;;9.17;5.00;;;;;;;-2.12;100.00;101534.75;5060245;28;20452;-72
2024/03/18 03:31:23;;;;;;;10.50;4.73;;;;;;;-2.04;100.00;101539.59;5071521;28;20556;-72
2024/03/18 03:33:52;;;;;;;9.07;4.87;;;;;;;-2.02;100.00;101538.38;5052831;28;20797;-72
2024/03/18 03:36:22;;;;;;;8.53;4.67;;;;;;;-2.00;100.00;101541.53;5069079;28;20976;-72
2024/03/18 03:38:48;;;;;;;9.23;5.07;;;;;;;-1.93;100.00;101544.06;5052939;28;20199;-72
2024/03/18 03:41:15;;;;;;;11.27;5.70;;;;;;;-1.89;100.00;101538.19;5066298;28;20191;-72
2024/03/18 03:43:41;;;;;;;8.20;4.80;;;;;;;-1.85;100.00;101535.97;5065585;28;20205;-72
2024/03/18 03:46:08;;;;;;;9.63;5.00;;;;;;;-1.82;100.00;101536.31;5061539;28;20235;-72
2024/03/18 03:48:36;;;;;;;11.50;5.40;;;;;;;-1.84;100.00;101534.94;5066263;28;20212;-72
2024/03/18 03:51:02;;;;;;;6.70;4.47;;;;;;;-1.80;100.00;101530.91;5059396;28;20947;-72
2024/03/18 03:53:28;;;;;;;11.30;5.07;;;;;;;-1.79;100.00;101535.06;5053377;28;20687;-71
2024/03/18 03:55:56;;;;;;;11.67;4.87;;;;;;;-1.79;100.00;101527.31;5066897;28;20218;-71
2024/03/18 03:58:23;;;;;;;12.97;5.27;;;;;;;-1.77;100.00;101530.47;5070098;28;20250;-71
2024/03/18 04:00:50;;;;;;;8.00;4.67;;;;;;;-1.77;100.00;101523.47;5065986;28;20202;-72
2024/03/18 04:03:18;;;;;;;9.23;4.83;;;;;;;-1.73;100.00;101523.81;5071098;28;20487;-71
2024/03/18 04:05:46;;;;;;;10.47;4.50;;;;;;;-1.76;100.00;101522.47;5065985;28;20589;-72
2024/03/18 04:08:12;;;;;;;11.60;4.57;;;;;;;-1.74;100.00;101515.28;5071363;28;20194;-72
2024/03/18 04:10:39;;;;;;;9.20;4.50;;;;;;;-1.73;100.00;101511.69;5066742;28;20465;-71
2024/03/18 04:13:06;;;;;;;8.67;4.10;;;;;;;-1.72;100.00;101509.91;5065111;28;20286;-72
2024/03/18 04:15:33;;;;;;;8.07;4.77;;;;;;;-1.69;100.00;101509.44;5067054;28;20214;-71
2024/03/18 04:17:59;;;;;;;9.20;4.70;;;;;;;-1.69;100.00;101512.03;5063078;28;20199;-71
2024/03/18 04:20:27;;;;;;;9.53;4.83;;;;;;;-1.67;100.00;101510.03;5065045;28;20456;-71
2024/03/18 04:22:56;;;;;;;7.03;3.90;;;;;;;-1.64;100.00;101506.97;5061543;28;20291;-72
2024/03/18 04:25:23;;;;;;;9.13;4.87;;;;;;;-1.64;100.00;101507.78;5061436;28;20211;-72
2024/03/18 04:27:50;;;;;;;11.47;5.13;;;;;;;-1.60;100.00;101508.09;5069516;28;20251;-72
2024/03/18 04:30:19;;;;;;;7.83;4.37;;;;;;;-1.58;100.00;101511.25;5051752;28;20218;-71
2024/03/18 04:32:48;;;;;;;10.90;4.73;;;;;;;-1.56;100.00;101517.03;5042624;28;20575;-72
2024/03/18 04:35:14;;;;;;;10.00;4.93;;;;;;;-1.54;100.00;101512.41;5070581;28;20547;-72
2024/03/18 04:37:46;;;;;;;7.67;4.90;;;;;;;-1.52;100.00;101511.16;5059744;28;20670;-72
2024/03/18 04:40:14;;;;;;;9.40;4.83;;;;;;;-1.48;100.00;101525.25;5067930;28;20665;-72
2024/03/18 04:42:40;;;;;;;10.67;5.53;;;;;;;-1.41;100.00;101522.56;5066853;28;20191;-72
2024/03/18 04:45:08;;;;;;;12.23;5.73;;;;;;;-1.41;100.00;101522.56;5047390;28;20554;-72
2024/03/18 04:47:36;;;;;;;11.17;6.00;;;;;;;-1.39;100.00;101521.31;5061499;28;20215;-72
2024/03/18 04:50:03;;;;;;;11.33;6.00;;;;;;;-1.42;100.00;101524.34;5070427;28;20194;-72
2024/03/18 04:52:29;;;;;;;10.63;6.07;;;;;;;-1.46;100.00;101519.84;5062853;28;20210;-72
2024/03/18 04:54:56;;;;;;;12.47;5.70;;;;;;;-1.47;100.00;101526.81;5054656;28;20227;-72
2024/03/18 04:57:23;;;;;;;10.57;5.73;;;;;;;-1.48;100.00;101523.44;5061254;28;20274;-72
2024/03/18 04:59:51;;;;;;;9.63;5.00;;;;;;;-1.46;100.00;101525.81;5061694;28;20209;-72
2024/03/18 05:02:21;;;;;;;11.47;5.33;;;;;;;-1.47;100.00;101519.03;5070232;28;20606;-72
2024/03/18 05:04:48;;;;;;;9.57;5.13;;;;;;;-1.48;100.00;101524.44;5060541;28;20493;-72
2024/03/18 05:07:14;;;;;;;9.70;4.80;;;;;;;-1.53;100.00;101524.31;5070302;28;20199;-72
2024/03/18 05:09:41;;;;;;;8.43;5.00;;;;;;;-1.57;100.00;101533.56;5065321;28;20189;-72
2024/03/18 05:12:10;;;;;;;9.80;5.30;;;;;;;-1.56;100.00;101532.56;5049843;28;20458;-72
2024/03/18 05:14:38;;;;;;;9.77;5.10;;;;;;;-1.64;100.00;101531.06;5069884;28;20680;-72
2024/03/18 05:17:05;;;;;;;10.50;5.07;;;;;;;-1.66;100.00;101530.50;5069035;28;20467;-72
2024/03/18 05:19:33;;;;;;;10.27;6.00;;;;;;;-1.65;100.00;101541.66;5070735;28;20190;-72
2024/03/18 05:21:59;;;;;;;8.77;5.27;;;;;;;-1.62;100.00;101541.22;5071081;28;20742;-72
2024/03/18 05:24:26;;;;;;;9.30;5.07;;;;;;;-1.57;100.00;101536.16;5060066;28;20804;-72
2024/03/18 05:26:52;;;;;;;8.70;5.10;;;;;;;-1.58;100.00;101529.38;5049931;28;20810;-72
2024/03/18 05:29:18;;;;;;;10.27;5.50;;;;;;;-1.56;100.00;101533.31;5066369;28;20433;-72
2024/03/18 05:31:46;;;;;;;10.07;4.90;;;;;;;-1.61;100.00;101540.97;5057187;28;20437;-72
2024/03/18 05:34:13;;;;;;;11.30;5.97;;;;;;;-1.61;100.00;101545.38;5070993;28;20194;-72
2024/03/18 05:36:39;;;;;;;11.53;6.10;;;;;;;-1.63;100.00;101545.59;5055469;28;20221;-72
2024/03/18 05:39:08;;;;;;;12.13;5.60;;;;;;;-1.62;100.00;101549.75;5054362;28;20442;-72
2024/03/18 05:41:35;;;;;;;8.43;5.40;;;;;;;-1.60;100.00;101545.16;5070272;28;20226;-72
2024/03/18 05:44:01;;;;;;;9.50;5.30;;;;;;;-1.55;100.00;101536.72;5069982;28;20445;-72
2024/03/18 05:46:27;;;;;;;10.40;5.37;;;;;;;-1.58;100.00;101545.72;5073394;28;20475;-72
2024/03/18 05:48:55;;;;;;;9.33;5.63;;;;;;;-1.66;100.00;101543.44;5076516;28;20452;-72
2024/03/18 05:51:25;;;;;;;15.43;6.50;;;;;;;-1.67;100.00;101539.28;5067274;28;20552;-72
2024/03/18 05:53:51;;;;;;;10.67;5.47;;;;;;;-1.67;100.00;101541.09;5072985;28;20613;-72
2024/03/18 05:56:18;;;;;;;11.13;5.80;;;;;;;-1.62;100.00;101543.81;5055799;28;20460;-72
2024/03/18 05:58:45;;;;;;;11.07;5.33;;;;;;;-1.62;100.00;101541.22;5057040;28;20249;-72
2024/03/18 06:01:11;;;;;;;9.60;5.53;;;;;;;-1.60;100.00;101545.16;5062107;28;20453;-72
2024/03/18 06:03:37;;;;;;;9.97;4.87;;;;;;;-1.54;100.00;101546.06;5071872;28;20539;-72
2024/03/18 06:06:07;;;;;;;12.60;5.90;;;;;;;-1.53;100.00;101545.84;5070816;28;20240;-72
2024/03/18 06:08:33;;;;;;;12.00;5.33;;;;;;;-1.48;100.00;101545.16;5072561;28;20312;-72
2024/03/18 06:11:00;;;;;;;9.47;5.47;;;;;;;-1.46;100.00;101540.56;5065892;28;20222;-72
2024/03/18 06:13:26;;;;;;;14.03;5.90;;;;;;;-1.41;100.00;101544.06;5071287;28;20212;-72
2024/03/18 06:15:53;;;;;;;11.17;5.00;;;;;;;-1.36;100.00;101535.63;5070020;28;20226;-72
2024/03/18 06:18:19;;;;;;;10.10;5.93;;;;;;;-1.29;100.00;101537.09;5068217;28;20461;-72
2024/03/18 06:20:49;;;;;;;9.13;5.00;;;;;;;-1.23;100.00;101539.56;5060596;28;20278;-72
2024/03/18 06:23:18;;;;;;;11.43;5.23;;;;;;;-1.18;100.00;101540.69;5062932;28;20199;-72
2024/03/18 06:25:57;;;;;;;12.07;6.07;;;;;;;-1.15;100.00;101550.63;5071929;28;20233;-72
2024/03/18 06:28:24;;;;;;;13.13;5.83;;;;;;;-1.09;100.00;101547.13;5047041;28;20242;-72
2024/03/18 06:30:51;;;;;;;12.17;5.83;;;;;;;-1.04;100.00;101542.06;5071046;28;20195;-72
2024/03/18 06:33:17;;;;;;;12.20;5.57;;;;;;;-1.00;100.00;101549.16;5042301;28;20210;-72
2024/03/18 06:35:45;;;;;;;10.57;4.87;;;;;;;-0.95;100.00;101545.91;5071050;28;20222;-72
2024/03/18 06:38:11;;;;;;;9.73;5.30;;;;;;;-0.90;100.00;101546.00;5069149;28;20221;-72
2024/03/18 06:40:42;;;;;;;8.93;5.17;;;;;;;-0.86;100.00;101545.31;5069453;28;20234;-73
2024/03/18 06:43:11;;;;;;;8.97;4.70;;;;;;;-0.79;100.00;101553.75;5071447;28;20558;-72
2024/03/18 06:45:37;;;;;;;11.13;5.27;;;;;;;-0.73;100.00;101557.25;5071561;28;20218;-72
2024/03/18 06:48:05;;;;;;;7.40;4.90;;;;;;;-0.68;100.00;101557.38;5076048;28;20207;-71
2024/03/18 06:50:32;;;;;;;7.47;4.70;;;;;;;-0.61;100.00;101553.63;5070905;28;20214;-72
2024/03/18 06:52:58;;;;;;;14.83;5.87;;;;;;;-0.57;100.00;101555.53;5063920;28;20253;-72
2024/03/18 06:55:25;;;;;;;12.23;5.67;;;;;;;-0.52;100.00;101557.44;5069090;28;20226;-72
2024/03/18 06:57:53;;;;;;;9.67;5.60;;;;;;;-0.45;100.00;101550.34;5059125;28;20730;-72
2024/03/18 07:00:23;;;;;;;9.80;5.53;;;;;;;-0.38;100.00;101559.56;5069965;28;20206;-72
2024/03/18 07:02:50;;;;;;;7.77;5.23;;;;;;;-0.33;100.00;101543.31;5069865;28;20206;-72
2024/03/18 07:05:17;;;;;;;11.50;5.60;;;;;;;-0.24;100.00;101549.72;5054139;28;20223;-72
2024/03/18 07:07:43;;;;;;;13.37;5.33;;;;;;;-0.18;100.00;101548.78;5068502;28;20229;-72
2024/03/18 07:10:11;;;;;;;7.77;4.97;;;;;;;-0.12;100.00;101545.25;5046861;28;20269;-72
2024/03/18 07:12:40;;;;;;;12.30;5.60;;;;;;;-0.06;100.00;101545.13;5066370;28;20276;-72
2024/03/18 07:15:12;;;;;;;14.47;5.30;;;;;;;0.02;100.00;101547.34;5063722;28;20233;-72
2024/03/18 07:17:41;;;;;;;10.60;4.90;;;;;;;0.11;100.00;101543.34;5060986;28;20199;-72
2024/03/18 07:20:11;;;;;;;8.07;4.33;;;;;;;0.18;100.00;101530.22;5065694;28;20213;-72
2024/03/18 07:22:39;;;;;;;7.73;4.47;;;;;;;0.24;100.00;101537.88;5070880;28;20208;-72
2024/03/18 07:25:09;;;;;;;10.20;4.67;;;;;;;0.30;100.00;101528.34;5064764;28;20215;-72
2024/03/18 07:27:36;;;;;;;9.30;4.30;;;;;;;0.34;100.00;101527.66;5063260;28;20294;-72
2024/03/18 07:30:03;;;;;;;7.13;4.13;;;;;;;0.42;100.00;101531.69;5057181;28;20196;-72
2024/03/18 07:32:31;;;;;;;13.23;4.67;;;;;;;0.46;100.00;101527.56;5061477;28;20395;-72
2024/03/18 07:34:58;;;;;;;9.57;4.80;;;;;;;0.54;100.00;101533.19;5057765;28;20567;-72
2024/03/18 07:37:24;;;;;;;5.60;3.43;;;;;;;0.60;100.00;101527.06;5063589;28;20195;-72
2024/03/18 07:39:51;;;;;;;5.63;3.13;;;;;;;0.66;100.00;101528.69;5059800;28;20269;-72
2024/03/18 07:42:18;;;;;;;8.17;3.70;;;;;;;0.74;100.00;101523.09;5065420;28;20563;-72
2024/03/18 07:44:44;;;;;;;6.53;3.43;;;;;;;0.80;100.00;101529.16;5066474;28;20199;-72
2024/03/18 07:47:13;;;;;;;6.90;3.07;;;;;;;0.89;100.00;101525.91;5055243;28;20704;-72
2024/03/18 07:49:42;;;;;;;3.97;2.77;;;;;;;0.97;100.00;101525.53;5076179;28;20194;-72
2024/03/18 07:52:08;;;;;;;4.83;2.50;;;;;;;1.07;100.00;101517.84;5059269;28;20202;-72
2024/03/18 07:54:35;;;;;;;4.37;2.60;;;;;;;1.17;100.00;101520.59;5065741;28;20198;-72
2024/03/18 07:57:02;;;;;;;2.97;2.00;;;;;;;1.26;100.00;101526.94;5064564;28;20209;-72
2024/03/18 07:59:29;;;;;;;2.37;1.93;;;;;;;1.38;100.00;101519.03;5068448;28;20217;-72
2024/03/18 08:01:56;;;;;;;3.63;2.07;;;;;;;1.45;100.00;101515.22;5068706;28;20208;-72
2024/03/18 08:04:22;;;;;;;3.60;2.20;;;;;;;1.54;100.00;101516.38;5065679;28;20191;-72
2024/03/18 08:06:50;;;;;;;3.70;2.03;;;;;;;1.65;100.00;101512.03;5055195;28;20229;-72
2024/03/18 08:09:17;;;;;;;3.93;1.70;;;;;;;1.73;100.00;101504.63;5064414;28;20193;-72
2024/03/18 08:11:45;;;;;;;3.47;1.77;;;;;;;1.83;100.00;101512.50;5067544;28;20697;-71
2024/03/18 08:14:11;;;;;;;2.87;1.70;;;;;;;1.93;100.00;101512.59;5047483;28;20213;-72
2024/03/18 08:16:38;;;;;;;2.90;1.53;;;;;;;2.02;100.00;101511.16;5069150;28;20293;-72
2024/03/18 08:19:04;;;;;;;2.77;1.30;;;;;;;2.08;100.00;101506.78;5068989;28;20209;-72
2024/03/18 08:21:31;;;;;;;3.47;1.70;;;;;;;2.19;100.00;101503.22;5061997;28;20203;-72
2024/03/18 08:23:59;;;;;;;2.60;1.30;;;;;;;2.25;100.00;101502.22;5062930;28;20233;-72
2024/03/18 08:26:27;;;;;;;1.83;1.40;;;;;;;2.35;100.00;101510.13;5062179;28;20219;-73
2024/03/18 08:28:54;;;;;;;3.37;1.50;;;;;;;2.43;100.00;101507.06;5066476;28;20198;-72
2024/03/18 08:31:21;;;;;;;3.13;1.23;;;;;;;2.46;100.00;101503.97;5062863;28;20211;-72
2024/03/18 08:33:47;;;;;;;6.83;1.93;;;;;;;2.54;100.00;101503.53;5042113;28;20191;-72
2024/03/18 08:36:14;;;;;;;3.27;2.33;;;;;;;2.57;100.00;101489.97;5059697;28;20223;-72
2024/03/18 08:38:40;;;;;;;5.67;3.37;;;;;;;2.65;100.00;101485.06;5064268;28;20482;-72
2024/03/18 08:41:08;;;;;;;11.17;6.60;;;;;;;2.67;100.00;101488.22;5068872;28;20289;-72
2024/03/18 08:43:34;;;;;;;2.03;1.30;;;;;;;2.73;100.00;101486.44;5055354;28;20199;-72
2024/03/18 08:46:05;;;;;;;4.20;1.50;;;;;;;2.77;100.00;101492.72;5065187;28;20210;-72
2024/03/18 08:48:32;;;;;;;3.60;1.50;;;;;;;2.84;100.00;101485.44;5058028;28;20748;-72
2024/03/18 08:50:59;;;;;;;5.67;2.00;;;;;;;2.90;100.00;101485.22;5063242;28;20297;-72
2024/03/18 08:53:25;;;;;;;2.57;1.40;;;;;;;2.95;100.00;101482.66;5057157;28;20287;-72
2024/03/18 08:55:51;;;;;;;2.90;1.53;;;;;;;3.02;100.00;101487.66;5051495;28;20705;-72
2024/03/18 08:58:19;;;;;;;3.13;1.30;;;;;;;3.09;100.00;101480.38;5065152;28;20694;-72
2024/03/18 09:00:50;;;;;;;6.07;1.20;;;;;;;3.18;100.00;101481.47;5064704;28;20203;-72
2024/03/18 09:03:17;;;;;;;2.63;1.37;;;;;;;3.24;100.00;101472.63;5058447;28;20199;-72
2024/03/18 09:05:43;;;;;;;2.27;1.37;;;;;;;3.30;100.00;101479.41;5065946;28;20222;-72
2024/03/18 09:08:10;;;;;;;1.87;1.10;;;;;;;3.33;100.00;101471.09;5069439;28;20580;-72
2024/03/18 09:10:38;;;;;;;2.13;1.30;;;;;;;3.41;100.00;101481.03;5067007;28;20202;-72
2024/03/18 09:13:04;;;;;;;3.77;1.30;;;;;;;3.44;100.00;101483.94;5070297;28;20566;-72
2024/03/18 09:15:33;;;;;;;2.70;1.50;;;;;;;3.52;100.00;101485.25;5068682;28;20233;-72
2024/03/18 09:18:02;;;;;;;3.83;1.90;;;;;;;3.58;100.00;101479.00;5059913;28;20198;-72
2024/03/18 09:20:29;;;;;;;2.73;1.37;;;;;;;3.64;100.00;101483.19;5062465;28;20201;-72
2024/03/18 09:22:56;;;;;;;3.23;1.50;;;;;;;3.69;100.00;101476.16;5062625;28;20218;-72
2024/03/18 09:25:22;;;;;;;1.47;1.10;;;;;;;3.73;100.00;101466.75;5063933;28;20230;-72
2024/03/18 09:27:49;;;;;;;4.13;2.17;;;;;;;3.80;100.00;101482.19;5067637;28;20221;-72
2024/03/18 09:30:16;;;;;;;2.10;1.30;;;;;;;3.85;100.00;101474.38;5070196;28;20599;-72
2024/03/18 09:32:43;;;;;;;2.67;1.83;;;;;;;3.89;100.00;101470.19;5059470;28;20206;-72
2024/03/18 09:35:10;;;;;;;4.70;1.97;;;;;;;3.92;100.00;101469.66;5067075;28;20229;-72
2024/03/18 09:37:36;;;;;;;2.87;2.07;;;;;;;3.98;100.00;101463.38;5059723;28;20263;-72
2024/03/18 09:40:03;;;;;;;2.97;1.77;;;;;;;4.05;100.00;101464.72;5065696;28;20199;-72
2024/03/18 09:42:30;;;;;;;2.03;1.50;;;;;;;4.12;100.00;101464.47;5051741;28;20230;-72
2024/03/18 09:44:57;;;;;;;4.43;2.30;;;;;;;4.17;100.00;101467.06;5068809;28;20219;-72
2024/03/18 09:47:25;;;;;;;3.13;1.60;;;;;;;4.21;100.00;101468.91;5063728;28;20211;-72
2024/03/18 09:49:54;;;;;;;1.90;1.13;;;;;;;4.27;100.00;101464.47;5066242;28;20561;-71
2024/03/18 09:52:21;;;;;;;2.90;1.30;;;;;;;4.36;100.00;101452.44;5065702;28;20199;-72
2024/03/18 09:54:50;;;;;;;2.77;1.40;;;;;;;4.42;100.00;101459.22;5062243;28;20203;-71
2024/03/18 09:57:18;;;;;;;3.70;1.77;;;;;;;4.48;100.00;101456.34;5063985;28;20195;-72
2024/03/18 09:59:51;;;;;;;2.83;1.33;;;;;;;4.51;100.00;101455.03;5060370;28;20188;-72
2024/03/18 10:02:18;;;;;;;4.73;1.53;;;;;;;4.57;100.00;101446.13;5066123;28;20200;-72
2024/03/18 10:04:51;;;;;;;6.47;2.13;;;;;;;4.64;100.00;101459.72;5060317;28;20204;-71
2024/03/18 10:07:19;;;;;;;2.63;1.40;;;;;;;4.67;100.00;101449.50;5066140;28;20223;-72
2024/03/18 10:09:48;;;;;;;2.00;1.20;;;;;;;4.75;100.00;101445.56;5061437;28;20740;-72
2024/03/18 10:12:19;;;;;;;3.10;1.60;;;;;;;4.79;100.00;101436.13;5063177;28;20231;-72
2024/03/18 10:14:45;;;;;;;4.23;1.43;;;;;;;4.82;100.00;101439.00;5059739;28;20198;-72
2024/03/18 10:17:15;;;;;;;1.93;1.67;;;;;;;4.84;100.00;101442.16;5065633;28;21054;-72
2024/03/18 10:19:42;;;;;;;2.60;1.30;;;;;;;4.86;100.00;101444.47;5061676;28;20256;-72
2024/03/18 10:22:11;;;;;;;3.33;1.63;;;;;;;4.92;100.00;101441.59;5065094;28;20208;-72
2024/03/18 10:24:41;;;;;;;7.20;4.20;;;;;;;4.95;100.00;101441.06;5067526;28;20567;-72
2024/03/18 10:27:07;;;;;;;2.67;1.00;;;;;;;4.98;100.00;101440.53;5065143;28;20236;-72
2024/03/18 10:29:34;;;;;;;2.60;1.10;;;;;;;5.04;100.00;101436.06;5068482;28;20205;-71
2024/03/18 10:32:01;;;;;;;2.63;1.20;;;;;;;5.07;100.00;101422.44;5063149;28;20662;-72
2024/03/18 10:34:36;;;;;;;2.73;2.00;;;;;;;5.12;100.00;101431.06;5059678;28;20217;-71
2024/03/18 10:37:03;;;;;;;3.63;1.90;;;;;;;5.18;99.23;101437.81;5061794;28;20596;-72
2024/03/18 10:39:40;;;;;;;1.60;1.33;;;;;;;5.24;83.59;101431.50;5066448;28;20723;-72
2024/03/18 10:42:15;;;;;;;2.53;1.57;;;;;;;5.29;90.90;101436.72;5065809;28;20202;-72
2024/03/18 10:44:47;;;;;;;2.90;1.60;;;;;;;5.35;93.57;101434.88;5062865;28;20296;-72
2024/03/18 10:47:14;;;;;;;3.20;1.60;;;;;;;5.38;90.17;101440.34;5061399;28;20294;-72
2024/03/18 10:49:41;;;;;;;1.63;1.27;;;;;;;5.45;82.98;101440.06;5062720;28;20195;-72
2024/03/18 10:52:09;;;;;;;1.70;1.00;;;;;;;5.49;98.52;101433.25;5063618;28;20734;-72
2024/03/18 10:54:36;;;;;;;1.27;0.83;;;;;;;5.52;94.81;101427.44;5067929;28;20285;-72
2024/03/18 10:57:03;;;;;;;2.97;1.10;;;;;;;5.57;95.58;101422.19;5065095;28;20209;-72
2024/03/18 10:59:31;;;;;;;2.40;1.20;;;;;;;5.65;80.81;101419.00;5059644;28;20555;-72
2024/03/18 11:01:58;;;;;;;2.03;1.13;;;;;;;5.71;96.10;101418.69;5064172;28;20815;-72
2024/03/18 11:04:25;;;;;;;4.03;1.10;;;;;;;5.79;91.90;101418.09;5064963;28;20217;-71
2024/03/18 11:06:55;;;;;;;1.50;1.00;;;;;;;5.88;85.32;101410.47;5063211;28;20276;-71
2024/03/18 11:09:23;;;;;;;2.70;1.17;;;;;;;5.95;81.53;101408.34;5061563;28;20208;-72
2024/03/18 11:11:50;;;;;;;0.83;0.73;;;;;;;5.98;87.85;101405.94;5064216;28;20214;-72
2024/03/18 11:14:24;;;;;;;2.67;1.10;;;;;;;6.04;95.88;101393.56;5065646;28;20238;-72
2024/03/18 11:16:52;;;;;;;3.13;1.20;;;;;;;6.06;77.41;101401.94;5047407;28;20690;-72
2024/03/18 11:19:20;;;;;;;2.03;0.90;;;;;;;6.12;82.32;101396.34;5065638;28;20200;-72